BAW64D EIDW-EGLL
Flight info
| Callsign | BAW64D |
|---|---|
| Flight time | 1h 15m |
| Altitude | 28000 |
| Route | PESIT2J PESIT DCT BAKUR DCT ECCIT DCT GUBJE DCT GISOK DCT TACQI DCT FONZU DCT ELRIP DCT OTMET |
| Aircraft | A320/M-SDE3FGHIRWY/LB1 |
Departure
| Time | 2026-05-04 16:43 |
|---|---|
| Airport | Dublin Airport (EIDW) |
Arrival
| Time | 2026-05-04 17:59 |
|---|---|
| Airport | London Heathrow Airport (EGLL) |
| Time | Latitude | Longitude | Altitude | Speed | Heading |
|---|---|---|---|---|---|
| 2026-05-04 16:12 | 53.42437 | -6.24357 | 211 ft | 0 kts | 136° |
| 2026-05-04 16:24 | 53.42437 | -6.24358 | 211 ft | 0 kts | 136° |
| 2026-05-04 16:31 | 53.42437 | -6.24357 | 212 ft | 0 kts | 136° |
| 2026-05-04 16:31 | 53.42448 | -6.24374 | 211 ft | 0 kts | 136° |
| 2026-05-04 16:32 | 53.42469 | -6.24409 | 211 ft | 2 kts | 136° |
| 2026-05-04 16:33 | 53.42494 | -6.24441 | 212 ft | 2 kts | 166° |
| 2026-05-04 16:33 | 53.42504 | -6.24445 | 219 ft | 0 kts | 195° |
| 2026-05-04 16:36 | 53.42501 | -6.24446 | 220 ft | 3 kts | 196° |
| 2026-05-04 16:36 | 53.42418 | -6.24645 | 214 ft | 15 kts | 243° |
| 2026-05-04 16:37 | 53.42254 | -6.24952 | 211 ft | 19 kts | 226° |
| 2026-05-04 16:37 | 53.42179 | -6.25151 | 211 ft | 22 kts | 242° |
| 2026-05-04 16:37 | 53.42129 | -6.25312 | 214 ft | 4 kts | 262° |
| 2026-05-04 16:38 | 53.42228 | -6.25590 | 211 ft | 19 kts | 275° |
| 2026-05-04 16:39 | 53.42271 | -6.26383 | 211 ft | 24 kts | 275° |
| 2026-05-04 16:39 | 53.42299 | -6.26891 | 211 ft | 22 kts | 275° |
| 2026-05-04 16:40 | 53.42331 | -6.27468 | 211 ft | 28 kts | 275° |
| 2026-05-04 16:40 | 53.42362 | -6.28042 | 211 ft | 19 kts | 275° |
| 2026-05-04 16:41 | 53.42389 | -6.28530 | 211 ft | 22 kts | 275° |
| 2026-05-04 16:41 | 53.42332 | -6.29077 | 210 ft | 19 kts | 181° |
| 2026-05-04 16:42 | 53.42236 | -6.28883 | 215 ft | 1 kts | 95° |
| 2026-05-04 16:43 | 53.42218 | -6.28566 | 212 ft | 67 kts | 95° |
| 2026-05-04 16:43 | 53.42038 | -6.25617 | 468 ft | 160 kts | 98° |
| 2026-05-04 16:43 | 53.41890 | -6.23716 | 1138 ft | 171 kts | 100° |
| 2026-05-04 16:44 | 53.36744 | -6.19871 | 3399 ft | 264 kts | 171° |
| 2026-05-04 16:45 | 53.33131 | -6.18344 | 5493 ft | 274 kts | 158° |
| 2026-05-04 16:46 | 53.27955 | -6.13944 | 8568 ft | 284 kts | 152° |
| 2026-05-04 16:46 | 53.24414 | -6.10732 | 10280 ft | 301 kts | 152° |
| 2026-05-04 16:47 | 53.20302 | -6.07652 | 10862 ft | 348 kts | 166° |
| 2026-05-04 16:47 | 53.15315 | -6.07127 | 12025 ft | 367 kts | 187° |
| 2026-05-04 16:48 | 53.07616 | -6.06148 | 14265 ft | 381 kts | 164° |
| 2026-05-04 16:48 | 53.05051 | -6.04967 | 14947 ft | 384 kts | 164° |
| 2026-05-04 16:49 | 52.99835 | -6.02600 | 16251 ft | 392 kts | 164° |
| 2026-05-04 16:49 | 52.94514 | -6.00224 | 17641 ft | 400 kts | 164° |
| 2026-05-04 16:50 | 52.89089 | -5.97808 | 18972 ft | 408 kts | 163° |
| 2026-05-04 16:50 | 52.83563 | -5.95343 | 20271 ft | 414 kts | 162° |
| 2026-05-04 16:51 | 52.77960 | -5.92838 | 21435 ft | 421 kts | 162° |
| 2026-05-04 16:51 | 52.75155 | -5.91590 | 21953 ft | 424 kts | 162° |
| 2026-05-04 16:51 | 52.69412 | -5.89038 | 22969 ft | 431 kts | 162° |
| 2026-05-04 16:52 | 52.63577 | -5.86466 | 23888 ft | 438 kts | 162° |
| 2026-05-04 16:52 | 52.60618 | -5.85162 | 24306 ft | 441 kts | 161° |
| 2026-05-04 16:53 | 52.54651 | -5.82529 | 25057 ft | 447 kts | 161° |
| 2026-05-04 16:53 | 52.45572 | -5.78492 | 26210 ft | 454 kts | 160° |
| 2026-05-04 16:54 | 52.42526 | -5.77031 | 26591 ft | 457 kts | 159° |
| 2026-05-04 16:55 | 52.30235 | -5.71136 | 28007 ft | 466 kts | 159° |
| 2026-05-04 16:55 | 52.23987 | -5.68229 | 28051 ft | 466 kts | 159° |
| 2026-05-04 16:56 | 52.08439 | -5.60926 | 28050 ft | 461 kts | 159° |
| 2026-05-04 16:57 | 51.99209 | -5.56461 | 28044 ft | 461 kts | 159° |
| 2026-05-04 16:58 | 51.90195 | -5.51346 | 28058 ft | 453 kts | 146° |
| 2026-05-04 16:58 | 51.87502 | -5.48721 | 28059 ft | 452 kts | 146° |
| 2026-05-04 17:00 | 51.71431 | -5.32972 | 28034 ft | 451 kts | 146° |
| 2026-05-04 17:01 | 51.58048 | -5.19983 | 28040 ft | 449 kts | 146° |
| 2026-05-04 17:02 | 51.47729 | -5.08874 | 28024 ft | 445 kts | 136° |
| 2026-05-04 17:03 | 51.40778 | -4.99010 | 28012 ft | 445 kts | 137° |
| 2026-05-04 17:03 | 51.33801 | -4.89203 | 28010 ft | 445 kts | 137° |
| 2026-05-04 17:04 | 51.29137 | -4.82674 | 27995 ft | 445 kts | 137° |
| 2026-05-04 17:04 | 51.24475 | -4.76151 | 28000 ft | 445 kts | 138° |
| 2026-05-04 17:05 | 51.15204 | -4.63201 | 28011 ft | 444 kts | 139° |
| 2026-05-04 17:06 | 51.08230 | -4.53535 | 27997 ft | 443 kts | 139° |
| 2026-05-04 17:07 | 51.03857 | -4.46654 | 28000 ft | 443 kts | 128° |
| 2026-05-04 17:07 | 51.02677 | -4.43931 | 27999 ft | 443 kts | 122° |
| 2026-05-04 17:07 | 51.00600 | -4.38345 | 27995 ft | 444 kts | 121° |
| 2026-05-04 17:07 | 50.99025 | -4.34129 | 27984 ft | 444 kts | 121° |
| 2026-05-04 17:08 | 50.97443 | -4.29920 | 27987 ft | 444 kts | 121° |
| 2026-05-04 17:08 | 50.94267 | -4.21513 | 27978 ft | 444 kts | 122° |
| 2026-05-04 17:08 | 50.92680 | -4.17327 | 27983 ft | 444 kts | 123° |
| 2026-05-04 17:09 | 50.91088 | -4.13134 | 27990 ft | 444 kts | 123° |
| 2026-05-04 17:09 | 50.89514 | -4.08992 | 27992 ft | 444 kts | 123° |
| 2026-05-04 17:09 | 50.87920 | -4.04802 | 27990 ft | 444 kts | 123° |
| 2026-05-04 17:10 | 50.84730 | -3.96440 | 27991 ft | 444 kts | 123° |
| 2026-05-04 17:10 | 50.80850 | -3.83153 | 27997 ft | 447 kts | 110° |
| 2026-05-04 17:11 | 50.79886 | -3.78484 | 27994 ft | 447 kts | 111° |
| 2026-05-04 17:11 | 50.78911 | -3.73814 | 27980 ft | 447 kts | 111° |
| 2026-05-04 17:11 | 50.76941 | -3.64483 | 27981 ft | 447 kts | 111° |
| 2026-05-04 17:12 | 50.75952 | -3.59824 | 27981 ft | 447 kts | 111° |
| 2026-05-04 17:12 | 50.73972 | -3.50509 | 27991 ft | 448 kts | 111° |
| 2026-05-04 17:13 | 50.71019 | -3.36577 | 27996 ft | 448 kts | 111° |
| 2026-05-04 17:14 | 50.68024 | -3.22622 | 27988 ft | 447 kts | 112° |
| 2026-05-04 17:14 | 50.67020 | -3.17976 | 27991 ft | 447 kts | 112° |
| 2026-05-04 17:14 | 50.65019 | -3.08705 | 27999 ft | 447 kts | 112° |
| 2026-05-04 17:15 | 50.64084 | -3.04029 | 27998 ft | 449 kts | 107° |
| 2026-05-04 17:15 | 50.63543 | -2.94183 | 28002 ft | 457 kts | 89° |
| 2026-05-04 17:16 | 50.64381 | -2.85918 | 28001 ft | 460 kts | 83° |
| 2026-05-04 17:16 | 50.66058 | -2.71058 | 27262 ft | 457 kts | 84° |
| 2026-05-04 17:17 | 50.66602 | -2.66106 | 27003 ft | 460 kts | 84° |
| 2026-05-04 17:17 | 50.68056 | -2.51117 | 27006 ft | 459 kts | 91° |
| 2026-05-04 17:18 | 50.67976 | -2.46105 | 27009 ft | 456 kts | 98° |
| 2026-05-04 17:18 | 50.67539 | -2.36138 | 27006 ft | 456 kts | 97° |
| 2026-05-04 17:19 | 50.67134 | -2.26238 | 25547 ft | 453 kts | 97° |
| 2026-05-04 17:19 | 50.66704 | -2.16233 | 23033 ft | 458 kts | 97° |
| 2026-05-04 17:20 | 50.66260 | -2.06331 | 21309 ft | 448 kts | 96° |
| 2026-05-04 17:20 | 50.66163 | -1.96507 | 20978 ft | 449 kts | 91° |
| 2026-05-04 17:20 | 50.66225 | -1.91581 | 21006 ft | 450 kts | 91° |
| 2026-05-04 17:21 | 50.66346 | -1.81775 | 21003 ft | 449 kts | 90° |
| 2026-05-04 17:21 | 50.66453 | -1.71953 | 21003 ft | 448 kts | 91° |
| 2026-05-04 17:22 | 50.66499 | -1.67045 | 20856 ft | 444 kts | 91° |
| 2026-05-04 17:22 | 50.66543 | -1.62219 | 19962 ft | 438 kts | 90° |
| 2026-05-04 17:23 | 50.68545 | -1.48525 | 17304 ft | 425 kts | 65° |
| 2026-05-04 17:23 | 50.69847 | -1.44374 | 16423 ft | 420 kts | 64° |
| 2026-05-04 17:23 | 50.72392 | -1.36171 | 14886 ft | 412 kts | 65° |
| 2026-05-04 17:24 | 50.73636 | -1.32121 | 14190 ft | 408 kts | 65° |
| 2026-05-04 17:24 | 50.78444 | -1.21650 | 12973 ft | 374 kts | 41° |
| 2026-05-04 17:25 | 50.80457 | -1.19257 | 13002 ft | 351 kts | 33° |
| 2026-05-04 17:25 | 50.84333 | -1.15258 | 13000 ft | 315 kts | 33° |
| 2026-05-04 17:26 | 50.87929 | -1.11537 | 12997 ft | 308 kts | 34° |
| 2026-05-04 17:26 | 50.93295 | -1.05973 | 12265 ft | 305 kts | 33° |
| 2026-05-04 17:27 | 50.96829 | -1.02312 | 11536 ft | 302 kts | 34° |
| 2026-05-04 17:27 | 51.00277 | -0.98580 | 10859 ft | 298 kts | 41° |
| 2026-05-04 17:28 | 51.03112 | -0.93869 | 10196 ft | 293 kts | 49° |
| 2026-05-04 17:29 | 51.07142 | -0.86703 | 10017 ft | 283 kts | 49° |
| 2026-05-04 17:29 | 51.10828 | -0.80129 | 9792 ft | 256 kts | 49° |
| 2026-05-04 17:30 | 51.14369 | -0.73787 | 8873 ft | 253 kts | 49° |
| 2026-05-04 17:31 | 51.16695 | -0.69623 | 8294 ft | 250 kts | 49° |
| 2026-05-04 17:31 | 51.20127 | -0.63455 | 7431 ft | 245 kts | 49° |
| 2026-05-04 17:32 | 51.22375 | -0.59414 | 7018 ft | 243 kts | 48° |
| 2026-05-04 17:33 | 51.25738 | -0.53346 | 7025 ft | 244 kts | 49° |
| 2026-05-04 17:33 | 51.26844 | -0.51343 | 6988 ft | 241 kts | 49° |
| 2026-05-04 17:34 | 51.30114 | -0.45279 | 6158 ft | 239 kts | 57° |
| 2026-05-04 17:34 | 51.30812 | -0.42887 | 5860 ft | 237 kts | 73° |
| 2026-05-04 17:35 | 51.32064 | -0.35287 | 5018 ft | 233 kts | 73° |
| 2026-05-04 17:35 | 51.32889 | -0.30271 | 5003 ft | 234 kts | 73° |
| 2026-05-04 17:35 | 51.33304 | -0.27752 | 5002 ft | 235 kts | 75° |
| 2026-05-04 17:36 | 51.33720 | -0.25234 | 4997 ft | 235 kts | 74° |
| 2026-05-04 17:36 | 51.34145 | -0.22711 | 5004 ft | 235 kts | 75° |
| 2026-05-04 17:36 | 51.34573 | -0.20188 | 5006 ft | 235 kts | 75° |
| 2026-05-04 17:36 | 51.35006 | -0.17655 | 5084 ft | 239 kts | 74° |
| 2026-05-04 17:37 | 51.35470 | -0.14973 | 5689 ft | 261 kts | 74° |
| 2026-05-04 17:37 | 51.35968 | -0.12112 | 6583 ft | 272 kts | 74° |
| 2026-05-04 17:37 | 51.36491 | -0.09159 | 7565 ft | 278 kts | 75° |
| 2026-05-04 17:37 | 51.37043 | -0.06142 | 8525 ft | 286 kts | 75° |
| 2026-05-04 17:38 | 51.37588 | -0.03075 | 9570 ft | 277 kts | 81° |
| 2026-05-04 17:38 | 51.37619 | -0.00163 | 10641 ft | 265 kts | 101° |
| 2026-05-04 17:38 | 51.37021 | 0.02604 | 11514 ft | 266 kts | 122° |
| 2026-05-04 17:38 | 51.35835 | 0.04824 | 11840 ft | 263 kts | 144° |
| 2026-05-04 17:39 | 51.32428 | 0.06471 | 11985 ft | 261 kts | 185° |
| 2026-05-04 17:39 | 51.30693 | 0.05772 | 11992 ft | 262 kts | 206° |
| 2026-05-04 17:39 | 51.29242 | 0.04048 | 11988 ft | 262 kts | 230° |
| 2026-05-04 17:40 | 51.28334 | 0.01540 | 11994 ft | 262 kts | 246° |
| 2026-05-04 17:40 | 51.27603 | -0.01131 | 11984 ft | 263 kts | 246° |
| 2026-05-04 17:40 | 51.26878 | -0.03807 | 11988 ft | 262 kts | 246° |
| 2026-05-04 17:40 | 51.26154 | -0.06479 | 11982 ft | 262 kts | 246° |
| 2026-05-04 17:41 | 51.25427 | -0.09152 | 11980 ft | 262 kts | 245° |
| 2026-05-04 17:41 | 51.24700 | -0.11816 | 11986 ft | 262 kts | 246° |
| 2026-05-04 17:41 | 51.23973 | -0.14470 | 11748 ft | 260 kts | 245° |
| 2026-05-04 17:41 | 51.23247 | -0.17107 | 11482 ft | 258 kts | 246° |
| 2026-05-04 17:42 | 51.22523 | -0.19723 | 11217 ft | 261 kts | 245° |
| 2026-05-04 17:42 | 51.21779 | -0.22414 | 10685 ft | 269 kts | 245° |
| 2026-05-04 17:42 | 51.21032 | -0.25136 | 10405 ft | 266 kts | 245° |
| 2026-05-04 17:42 | 51.20300 | -0.27835 | 10109 ft | 264 kts | 248° |
| 2026-05-04 17:43 | 51.19925 | -0.30692 | 9795 ft | 264 kts | 263° |
| 2026-05-04 17:43 | 51.19722 | -0.33580 | 9556 ft | 259 kts | 263° |
| 2026-05-04 17:43 | 51.19528 | -0.36392 | 9356 ft | 252 kts | 263° |
| 2026-05-04 17:43 | 51.19340 | -0.39151 | 9076 ft | 250 kts | 263° |
| 2026-05-04 17:44 | 51.19151 | -0.41911 | 8974 ft | 250 kts | 262° |
| 2026-05-04 17:44 | 51.18961 | -0.44663 | 8985 ft | 251 kts | 263° |
| 2026-05-04 17:44 | 51.18770 | -0.47423 | 8987 ft | 251 kts | 263° |
| 2026-05-04 17:44 | 51.18575 | -0.50191 | 9005 ft | 251 kts | 262° |
| 2026-05-04 17:45 | 51.18444 | -0.52018 | 9003 ft | 251 kts | 263° |
| 2026-05-04 17:45 | 51.18179 | -0.55722 | 9004 ft | 251 kts | 263° |
| 2026-05-04 17:45 | 51.17986 | -0.58447 | 9007 ft | 251 kts | 262° |
| 2026-05-04 17:45 | 51.17792 | -0.61210 | 9004 ft | 251 kts | 262° |
| 2026-05-04 17:46 | 51.17769 | -0.63979 | 8985 ft | 251 kts | 279° |
| 2026-05-04 17:46 | 51.18411 | -0.66535 | 8698 ft | 250 kts | 305° |
| 2026-05-04 17:46 | 51.19660 | -0.68412 | 8390 ft | 250 kts | 329° |
| 2026-05-04 17:46 | 51.21286 | -0.69305 | 8092 ft | 249 kts | 354° |
| 2026-05-04 17:47 | 51.22990 | -0.69057 | 7786 ft | 247 kts | 18° |
| 2026-05-04 17:47 | 51.24467 | -0.67726 | 7490 ft | 245 kts | 43° |
| 2026-05-04 17:47 | 51.25469 | -0.65567 | 7192 ft | 243 kts | 66° |
| 2026-05-04 17:47 | 51.25842 | -0.62967 | 6893 ft | 241 kts | 90° |
| 2026-05-04 17:48 | 51.25653 | -0.60315 | 6586 ft | 241 kts | 98° |
| 2026-05-04 17:48 | 51.25483 | -0.57666 | 6280 ft | 240 kts | 89° |
| 2026-05-04 17:48 | 51.25585 | -0.55921 | 6072 ft | 238 kts | 79° |
| 2026-05-04 17:48 | 51.26334 | -0.52625 | 5663 ft | 236 kts | 59° |
| 2026-05-04 17:49 | 51.27302 | -0.50529 | 5367 ft | 234 kts | 47° |
| 2026-05-04 17:49 | 51.28417 | -0.48651 | 5094 ft | 232 kts | 38° |
| 2026-05-04 17:49 | 51.29850 | -0.47560 | 4994 ft | 229 kts | 11° |
| 2026-05-04 17:49 | 51.31381 | -0.47613 | 4991 ft | 215 kts | 346° |
| 2026-05-04 17:50 | 51.32659 | -0.48631 | 5033 ft | 198 kts | 322° |
| 2026-05-04 17:50 | 51.33597 | -0.50194 | 5011 ft | 193 kts | 313° |
| 2026-05-04 17:50 | 51.34496 | -0.51787 | 5007 ft | 193 kts | 313° |
| 2026-05-04 17:50 | 51.35389 | -0.53368 | 4864 ft | 190 kts | 313° |
| 2026-05-04 17:51 | 51.36278 | -0.54941 | 4524 ft | 191 kts | 313° |
| 2026-05-04 17:51 | 51.37165 | -0.56510 | 4244 ft | 188 kts | 313° |
| 2026-05-04 17:51 | 51.38007 | -0.58001 | 4096 ft | 174 kts | 313° |
| 2026-05-04 17:51 | 51.38802 | -0.59412 | 3847 ft | 169 kts | 313° |
| 2026-05-04 17:52 | 51.39583 | -0.60804 | 3529 ft | 167 kts | 314° |
| 2026-05-04 17:52 | 51.40360 | -0.62192 | 3215 ft | 167 kts | 314° |
| 2026-05-04 17:52 | 51.41123 | -0.63553 | 3028 ft | 166 kts | 316° |
| 2026-05-04 17:52 | 51.41192 | -0.63675 | 3017 ft | 166 kts | 316° |
| 2026-05-04 17:53 | 51.41444 | -0.64132 | 3074 ft | 163 kts | 316° |
| 2026-05-04 17:53 | 51.42221 | -0.65519 | 3050 ft | 168 kts | 315° |
| 2026-05-04 17:54 | 51.43002 | -0.66906 | 3027 ft | 167 kts | 316° |
| 2026-05-04 17:54 | 51.43773 | -0.68279 | 2882 ft | 164 kts | 315° |
| 2026-05-04 17:54 | 51.44587 | -0.69543 | 2567 ft | 160 kts | 334° |
| 2026-05-04 17:54 | 51.45629 | -0.70010 | 2513 ft | 157 kts | 3° |
| 2026-05-04 17:55 | 51.46664 | -0.69563 | 2522 ft | 156 kts | 31° |
| 2026-05-04 17:55 | 51.47418 | -0.68329 | 2457 ft | 156 kts | 60° |
| 2026-05-04 17:55 | 51.47662 | -0.66702 | 2317 ft | 149 kts | 87° |
| 2026-05-04 17:55 | 51.47667 | -0.65082 | 2150 ft | 142 kts | 86° |
| 2026-05-04 17:56 | 51.47676 | -0.63552 | 1989 ft | 135 kts | 85° |
| 2026-05-04 17:56 | 51.47684 | -0.62070 | 1804 ft | 135 kts | 87° |
| 2026-05-04 17:56 | 51.47692 | -0.60573 | 1624 ft | 133 kts | 87° |
| 2026-05-04 17:56 | 51.47700 | -0.59097 | 1449 ft | 132 kts | 86° |
| 2026-05-04 17:57 | 51.47707 | -0.57632 | 1266 ft | 131 kts | 86° |
| 2026-05-04 17:57 | 51.47714 | -0.56173 | 1083 ft | 131 kts | 86° |
| 2026-05-04 17:57 | 51.47721 | -0.54712 | 897 ft | 131 kts | 86° |
| 2026-05-04 17:57 | 51.47729 | -0.53247 | 741 ft | 132 kts | 86° |
| 2026-05-04 17:58 | 51.47741 | -0.51765 | 554 ft | 133 kts | 87° |
| 2026-05-04 17:58 | 51.47744 | -0.50298 | 347 ft | 131 kts | 87° |
| 2026-05-04 17:58 | 51.47748 | -0.48848 | 177 ft | 130 kts | 88° |
| 2026-05-04 17:58 | 51.47752 | -0.47433 | 86 ft | 115 kts | 88° |
| 2026-05-04 17:59 | 51.47760 | -0.46416 | 89 ft | 61 kts | 90° |
| 2026-05-04 17:59 | 51.47761 | -0.46003 | 86 ft | 32 kts | 90° |
| 2026-05-04 17:59 | 51.47700 | -0.45470 | 86 ft | 11 kts | 159° |
| 2026-05-04 18:00 | 51.47651 | -0.45468 | 87 ft | 0 kts | 181° |
| 2026-05-04 18:00 | 51.47647 | -0.45468 | 87 ft | 2 kts | 181° |
| 2026-05-04 18:00 | 51.47645 | -0.45468 | 87 ft | 0 kts | 181° |
| 2026-05-04 18:01 | 51.47603 | -0.45503 | 87 ft | 11 kts | 236° |
| 2026-05-04 18:01 | 51.47595 | -0.45655 | 90 ft | 16 kts | 270° |
| 2026-05-04 18:02 | 51.47595 | -0.46089 | 87 ft | 23 kts | 270° |
| 2026-05-04 18:02 | 51.47594 | -0.46274 | 88 ft | 26 kts | 269° |
| 2026-05-04 18:02 | 51.47593 | -0.46581 | 87 ft | 27 kts | 270° |
| 2026-05-04 18:02 | 51.47589 | -0.46812 | 87 ft | 21 kts | 263° |
| 2026-05-04 18:03 | 51.47581 | -0.47066 | 90 ft | 25 kts | 270° |
| 2026-05-04 18:03 | 51.47581 | -0.47354 | 87 ft | 20 kts | 270° |
| 2026-05-04 18:03 | 51.47580 | -0.47595 | 89 ft | 24 kts | 270° |
| 2026-05-04 18:03 | 51.47579 | -0.47845 | 90 ft | 23 kts | 269° |
| 2026-05-04 18:04 | 51.47578 | -0.48086 | 89 ft | 22 kts | 269° |
| 2026-05-04 18:04 | 51.47577 | -0.48292 | 87 ft | 17 kts | 265° |
| 2026-05-04 18:04 | 51.47420 | -0.48363 | 87 ft | 16 kts | 179° |
| 2026-05-04 18:05 | 51.47297 | -0.48361 | 87 ft | 20 kts | 179° |
| 2026-05-04 18:05 | 51.47147 | -0.48359 | 87 ft | 22 kts | 180° |
| 2026-05-04 18:05 | 51.47030 | -0.48360 | 87 ft | 17 kts | 179° |
| 2026-05-04 18:05 | 51.46900 | -0.48357 | 87 ft | 20 kts | 180° |
| 2026-05-04 18:06 | 51.46801 | -0.48358 | 87 ft | 0 kts | 180° |
| 2026-05-04 18:08 | 51.46798 | -0.48358 | 87 ft | 2 kts | 180° |
| 2026-05-04 18:08 | 51.46751 | -0.48385 | 88 ft | 10 kts | 226° |
| 2026-05-04 18:09 | 51.46740 | -0.48656 | 87 ft | 11 kts | 269° |
| 2026-05-04 18:09 | 51.46845 | -0.48754 | 87 ft | 6 kts | 354° |
| 2026-05-04 18:10 | 51.46875 | -0.48815 | 87 ft | 8 kts | 273° |
| 2026-05-04 18:10 | 51.46906 | -0.48861 | 87 ft | 7 kts | 359° |
| 2026-05-04 18:10 | 51.46917 | -0.48861 | 87 ft | 2 kts | 358° |
| 2026-05-04 18:10 | 51.46923 | -0.48861 | 87 ft | 0 kts | 359° |
| 2026-05-04 18:39 | 51.46922 | -0.48861 | 87 ft | 0 kts | 359° |